KNOW

Port Angeles CGas Airport

Port Angeles, Washington, USA
METAR KNOW 201255Z AUTO 22004KT 10SM -DZ SCT033 BKN043 OVC055 06/04 A2995 RMK AO2 T00560041
Observed Flight Rules
Jan-20 @ 12:55 UTC (17 minutes ago) Visual Flight Rules
Wind Visibility Clouds Conditions
220° at 4 knots 10 miles
  • Scattered at 3,300' AGL
  • Broken at 4,300' AGL
  • Overcast at 5,500' AGL
  • Light Drizzle
Temperatures Readings
Current 6°C / 43°F
Dewpoint 4°C / 39°F
Humidity 87%
Altimeter 29.95" Hg
Pressure 1014 hPa
Elevation 4
METAR KNOW 201255Z AUTO 22004KT 10SM -DZ SCT033 BKN043 OVC055 06/04 A2995 RMK AO2 T00560041
Observed Flight Rules
Jan-20 @ 12:55 UTC
(17 minutes ago)
VFR
Wind Visibility
220° at 4 knots 10 miles
Clouds
  • Scattered at 3,300' AGL
  • Broken at 4,300' AGL
  • Overcast at 5,500' AGL
Conditions
  • Light Drizzle
Temperature Dewpoint
6°C / 43°F 4°C / 39°F
Humidity Altimeter Pressure
87% 29.95" Hg 1014 hPa